createdAt,value
2019-01-26T00:00:33.028Z,67.62
2019-01-26T00:01:08.438Z,64.85
2019-01-26T00:01:40.925Z,82.65
2019-01-26T00:02:13.660Z,79.72
2019-01-26T00:02:46.126Z,70.62
2019-01-26T00:03:18.593Z,76.95
2019-01-26T00:03:51.112Z,71.53
2019-01-26T00:04:23.558Z,85.07
2019-01-26T00:04:56.387Z,71.20
2019-01-26T00:05:28.872Z,71.28
2019-01-26T00:06:01.366Z,77.20
2019-01-26T00:06:34.177Z,72.95
2019-01-26T00:07:06.679Z,66.35
2019-01-26T00:07:39.167Z,76.85
2019-01-26T00:08:11.658Z,73.72
2019-01-26T00:08:44.127Z,70.47
2019-01-26T00:09:16.609Z,70.83
2019-01-26T00:09:49.425Z,68.10
2019-01-26T00:10:21.899Z,76.82
2019-01-26T00:10:54.775Z,72.60
2019-01-26T00:11:27.249Z,70.92
2019-01-26T00:11:59.713Z,70.03
2019-01-26T00:12:32.530Z,74.95
2019-01-26T00:13:05.011Z,69.35
2019-01-26T00:13:37.470Z,73.97
2019-01-26T00:14:10.325Z,68.65
2019-01-26T00:14:43.064Z,72.42
2019-01-26T00:15:15.553Z,67.78
2019-01-26T00:15:48.326Z,79.05
2019-01-26T00:16:21.194Z,69.75
2019-01-26T00:16:53.788Z,71.30
2019-01-26T00:17:26.279Z,74.00
2019-01-26T00:17:58.747Z,73.95
2019-01-26T00:18:31.224Z,70.60
2019-01-26T00:19:03.699Z,72.30
2019-01-26T00:19:36.502Z,69.72
2019-01-26T00:20:08.992Z,75.42
2019-01-26T00:20:41.499Z,72.87
2019-01-26T00:21:13.970Z,76.33
2019-01-26T00:21:46.457Z,71.82
2019-01-26T00:22:18.938Z,67.53
2019-01-26T00:22:51.418Z,72.92
2019-01-26T00:23:23.912Z,72.78
2019-01-26T00:23:56.665Z,81.75
2019-01-26T00:24:29.150Z,67.60
2019-01-26T00:25:01.636Z,88.42
2019-01-26T00:25:34.102Z,68.10
2019-01-26T00:26:06.606Z,75.22
2019-01-26T00:26:39.517Z,70.95
2019-01-26T00:27:12.393Z,67.65
2019-01-26T00:27:44.850Z,73.83
2019-01-26T00:28:17.331Z,76.35
2019-01-26T00:28:49.826Z,67.62
2019-01-26T00:29:22.641Z,69.25
2019-01-26T00:29:55.111Z,60.25
2019-01-26T00:30:27.577Z,69.77
2019-01-26T00:31:00.435Z,68.40
2019-01-26T00:31:32.933Z,69.67
2019-01-26T00:32:05.875Z,72.20
2019-01-26T00:32:38.357Z,73.62
2019-01-26T00:33:10.826Z,71.72
2019-01-26T00:33:43.503Z,72.40
2019-01-26T00:34:16.070Z,70.72
2019-01-26T00:34:48.960Z,75.22
2019-01-26T00:35:24.207Z,74.58
2019-01-26T00:35:56.736Z,72.20
2019-01-26T00:36:29.227Z,77.42
2019-01-26T00:37:01.740Z,69.37
2019-01-26T00:37:34.221Z,75.37
2019-01-26T00:38:06.706Z,68.35
2019-01-26T00:38:39.174Z,64.30
2019-01-26T00:39:11.659Z,79.55
2019-01-26T00:39:45.143Z,82.82
2019-01-26T00:40:17.716Z,71.17
2019-01-26T00:40:50.179Z,74.75
2019-01-26T00:41:22.658Z,83.97
2019-01-26T00:41:55.133Z,79.70
2019-01-26T00:42:27.635Z,76.72
2019-01-26T00:43:00.118Z,74.60
2019-01-26T00:43:32.588Z,78.50
2019-01-26T00:44:05.069Z,84.40
2019-01-26T00:44:37.542Z,75.03
2019-01-26T00:45:10.110Z,85.95
2019-01-26T00:45:42.558Z,79.92
2019-01-26T00:46:15.043Z,77.75
2019-01-26T00:46:47.518Z,74.30
2019-01-26T00:47:20.615Z,83.72
2019-01-26T00:47:53.125Z,78.47
2019-01-26T00:48:25.590Z,91.32
2019-01-26T00:48:58.399Z,83.03
2019-01-26T00:49:30.884Z,77.30
2019-01-26T00:50:04.247Z,79.42
2019-01-26T00:50:36.739Z,79.75
2019-01-26T00:51:09.214Z,77.70
2019-01-26T00:51:42.037Z,86.15
2019-01-26T00:52:14.983Z,82.88
2019-01-26T00:52:47.474Z,85.38
2019-01-26T00:53:20.342Z,85.05
2019-01-26T00:53:52.828Z,75.15
2019-01-26T00:54:25.311Z,75.42
2019-01-26T00:54:57.791Z,78.67
2019-01-26T00:55:30.250Z,79.37
2019-01-26T00:56:02.740Z,77.12
2019-01-26T00:56:35.510Z,82.02
2019-01-26T00:57:07.978Z,80.80
2019-01-26T00:57:40.451Z,79.12
2019-01-26T00:58:13.614Z,79.62
2019-01-26T00:58:46.144Z,88.72
2019-01-26T00:59:18.614Z,87.25
2019-01-26T00:59:51.094Z,81.47
2019-01-26T01:00:23.973Z,83.07
2019-01-26T01:00:56.451Z,87.72
2019-01-26T01:01:28.927Z,77.55
2019-01-26T01:02:01.415Z,91.10
2019-01-26T01:02:33.887Z,84.77
2019-01-26T01:03:06.348Z,81.22
2019-01-26T01:03:38.862Z,73.72
2019-01-26T01:04:11.427Z,84.10
2019-01-26T01:04:43.890Z,87.57
2019-01-26T01:05:16.771Z,83.03
2019-01-26T01:05:49.234Z,90.42
2019-01-26T01:06:25.859Z,88.35
2019-01-26T01:06:56.680Z,77.87
2019-01-26T01:07:29.138Z,82.08
2019-01-26T01:08:01.994Z,86.02
2019-01-26T01:08:34.599Z,78.15
2019-01-26T01:09:08.187Z,87.15
2019-01-26T01:09:41.039Z,84.58
2019-01-26T01:10:14.958Z,80.03
2019-01-26T01:10:47.431Z,96.53
2019-01-26T01:11:19.896Z,83.78
2019-01-26T01:11:52.637Z,93.60
2019-01-26T01:12:25.489Z,83.33
2019-01-26T01:12:57.942Z,84.95
2019-01-26T01:13:30.415Z,82.85
2019-01-26T01:14:03.055Z,89.03
2019-01-26T01:14:35.524Z,93.65
2019-01-26T01:15:09.728Z,93.20
2019-01-26T01:15:42.212Z,94.85
2019-01-26T01:16:14.691Z,84.03
2019-01-26T01:16:47.518Z,91.20
2019-01-26T01:17:20.282Z,77.00
2019-01-26T01:17:52.764Z,84.87
2019-01-26T01:18:25.525Z,94.85
2019-01-26T01:18:58.315Z,91.67
2019-01-26T01:19:30.743Z,81.12
2019-01-26T01:20:04.763Z,79.77
2019-01-26T01:20:37.282Z,83.87
2019-01-26T01:21:09.735Z,93.92
2019-01-26T01:21:42.240Z,86.97
2019-01-26T01:22:14.699Z,86.78
2019-01-26T01:22:47.550Z,95.72
2019-01-26T01:23:20.033Z,85.15
2019-01-26T01:23:52.522Z,88.25
2019-01-26T01:24:24.995Z,85.53
2019-01-26T01:24:57.470Z,88.62
2019-01-26T01:25:30.228Z,85.17
2019-01-26T01:26:02.722Z,81.00
2019-01-26T01:26:35.205Z,89.42
2019-01-26T01:27:07.681Z,90.57
2019-01-26T01:27:40.142Z,84.50
2019-01-26T01:28:13.051Z,82.60
2019-01-26T01:28:45.850Z,87.35
2019-01-26T01:29:18.359Z,84.45
2019-01-26T01:29:50.845Z,86.67
2019-01-26T01:30:23.645Z,81.02
2019-01-26T01:30:56.109Z,83.00
2019-01-26T01:31:28.623Z,80.92
2019-01-26T01:32:01.094Z,84.58
2019-01-26T01:32:33.567Z,94.77
2019-01-26T01:33:06.372Z,83.07
2019-01-26T01:33:38.850Z,89.15
2019-01-26T01:34:11.344Z,86.32
2019-01-26T01:34:43.856Z,82.78
2019-01-26T01:35:16.699Z,82.78
2019-01-26T01:35:49.181Z,89.72
2019-01-26T01:36:21.946Z,91.10
2019-01-26T01:36:54.573Z,91.22
2019-01-26T01:37:27.056Z,88.30
2019-01-26T01:37:59.846Z,84.70
2019-01-26T01:38:32.616Z,82.22
2019-01-26T01:39:07.645Z,85.65
2019-01-26T01:39:40.565Z,85.07
2019-01-26T01:40:13.982Z,80.00
2019-01-26T01:40:46.463Z,85.15
2019-01-26T01:41:18.972Z,80.28
2019-01-26T01:41:51.438Z,87.67
2019-01-26T01:42:23.956Z,94.42
2019-01-26T01:42:56.434Z,83.30
2019-01-26T01:43:28.905Z,78.70
2019-01-26T01:44:01.369Z,80.40
2019-01-26T01:44:34.191Z,90.62
2019-01-26T01:45:08.812Z,89.35
2019-01-26T01:45:41.303Z,75.28
2019-01-26T01:46:13.787Z,89.80
2019-01-26T01:46:46.268Z,86.47
2019-01-26T01:47:19.364Z,83.03
2019-01-26T01:47:51.866Z,84.55
2019-01-26T01:48:24.350Z,83.90
2019-01-26T01:48:56.828Z,79.35
2019-01-26T01:49:29.294Z,81.95
2019-01-26T01:50:01.770Z,85.05
2019-01-26T01:50:34.256Z,89.80
2019-01-26T01:51:06.735Z,87.55
2019-01-26T01:51:39.207Z,77.58
2019-01-26T01:52:12.011Z,81.95
2019-01-26T01:52:44.496Z,78.07
2019-01-26T01:53:17.347Z,88.37
2019-01-26T01:53:49.886Z,82.60
2019-01-26T01:54:22.369Z,82.85
2019-01-26T01:54:54.842Z,75.78
2019-01-26T01:55:27.311Z,81.53
2019-01-26T01:55:59.791Z,87.85
2019-01-26T01:56:32.274Z,84.30
2019-01-26T01:57:05.040Z,74.40
2019-01-26T01:57:37.498Z,84.30
2019-01-26T01:58:10.326Z,76.67
2019-01-26T01:58:42.814Z,79.12
2019-01-26T01:59:15.301Z,88.70
2019-01-26T01:59:48.107Z,75.90
2019-01-26T02:00:22.518Z,82.92
2019-01-26T02:00:55.011Z,82.33
2019-01-26T02:01:27.486Z,77.25
2019-01-26T02:01:59.957Z,82.42
2019-01-26T02:02:32.418Z,74.40
2019-01-26T02:03:04.891Z,82.12
2019-01-26T02:03:37.658Z,80.03
2019-01-26T02:04:10.176Z,85.80
2019-01-26T02:04:42.656Z,77.70
2019-01-26T02:05:15.447Z,73.78
2019-01-26T02:05:48.241Z,77.82
2019-01-26T02:06:20.740Z,87.10
2019-01-26T02:06:53.213Z,82.10
2019-01-26T02:07:25.706Z,85.92
2019-01-26T02:07:58.636Z,82.37
2019-01-26T02:08:31.102Z,75.03
2019-01-26T02:09:07.214Z,82.22
2019-01-26T02:09:40.083Z,87.92
2019-01-26T02:10:14.190Z,77.35
2019-01-26T02:10:46.669Z,81.17
2019-01-26T02:11:19.134Z,74.32
2019-01-26T02:11:51.605Z,89.45
2019-01-26T02:12:24.433Z,74.82
2019-01-26T02:12:56.900Z,70.67
2019-01-26T02:13:29.350Z,68.35
2019-01-26T02:14:02.356Z,88.85
2019-01-26T02:14:34.813Z,73.33
2019-01-26T02:15:08.325Z,80.60
2019-01-26T02:15:41.137Z,94.72
2019-01-26T02:16:13.623Z,82.85
2019-01-26T02:16:50.074Z,75.25
2019-01-26T02:17:20.390Z,73.52
2019-01-26T02:17:52.858Z,81.37
2019-01-26T02:18:25.772Z,74.75
2019-01-26T02:18:58.246Z,79.70
2019-01-26T02:19:30.722Z,82.00
2019-01-26T02:20:04.543Z,71.82
2019-01-26T02:20:37.049Z,69.47
2019-01-26T02:21:10.218Z,74.65
2019-01-26T02:21:42.786Z,69.42
2019-01-26T02:22:15.258Z,82.65
2019-01-26T02:22:47.745Z,86.57
2019-01-26T02:23:20.210Z,74.10
2019-01-26T02:23:52.670Z,70.80
2019-01-26T02:24:25.175Z,72.95
2019-01-26T02:24:58.031Z,80.38
2019-01-26T02:25:30.867Z,71.33
2019-01-26T02:26:03.569Z,70.08
2019-01-26T02:26:36.078Z,73.95
2019-01-26T02:27:08.562Z,73.70
2019-01-26T02:27:41.034Z,75.12
2019-01-26T02:28:13.492Z,67.30
2019-01-26T02:28:45.972Z,73.47
2019-01-26T02:29:18.446Z,75.92
2019-01-26T02:29:50.954Z,70.83
2019-01-26T02:30:23.532Z,74.32
2019-01-26T02:30:56.023Z,66.25
2019-01-26T02:31:28.852Z,76.45
2019-01-26T02:32:01.319Z,56.48
2019-01-26T02:32:33.921Z,66.82
2019-01-26T02:33:06.395Z,73.28
2019-01-26T02:33:38.868Z,71.70
2019-01-26T02:34:11.352Z,62.15
2019-01-26T02:34:43.829Z,73.55
2019-01-26T02:35:16.569Z,62.55
2019-01-26T02:35:49.067Z,70.40
2019-01-26T02:36:21.551Z,65.03
2019-01-26T02:36:54.049Z,65.45
2019-01-26T02:37:26.528Z,68.25
2019-01-26T02:37:59.011Z,67.85
2019-01-26T02:38:31.873Z,67.97
2019-01-26T02:39:06.606Z,66.42
2019-01-26T02:39:39.101Z,64.92
2019-01-26T02:40:12.276Z,73.83
2019-01-26T02:40:44.740Z,69.92
2019-01-26T02:41:17.198Z,65.90
2019-01-26T02:41:50.007Z,64.50
2019-01-26T02:42:22.909Z,65.08
2019-01-26T02:42:55.988Z,67.05
2019-01-26T02:43:28.447Z,69.58
2019-01-26T02:44:00.931Z,54.88
2019-01-26T02:44:33.390Z,61.40
2019-01-26T02:45:06.633Z,66.82
2019-01-26T02:45:39.111Z,63.73
2019-01-26T02:46:11.583Z,65.35
2019-01-26T02:46:44.065Z,64.00
2019-01-26T02:47:16.543Z,61.98
2019-01-26T02:47:49.038Z,72.70
2019-01-26T02:48:21.514Z,58.95
2019-01-26T02:48:53.987Z,57.93
2019-01-26T02:49:26.469Z,59.98
2019-01-26T02:49:58.941Z,63.25
2019-01-26T02:50:31.731Z,63.28
2019-01-26T02:51:04.207Z,57.35
2019-01-26T02:51:36.962Z,58.35
2019-01-26T02:52:09.435Z,61.48
2019-01-26T02:52:41.936Z,57.35
2019-01-26T02:53:14.448Z,61.55
2019-01-26T02:53:46.916Z,64.05
2019-01-26T02:54:20.013Z,64.60
2019-01-26T02:54:52.813Z,57.85
2019-01-26T02:55:25.273Z,60.85
2019-01-26T02:55:57.752Z,67.53
2019-01-26T02:56:30.229Z,67.67
2019-01-26T02:57:02.802Z,62.33
2019-01-26T02:57:35.277Z,69.03
2019-01-26T02:58:07.868Z,69.15
2019-01-26T02:58:40.701Z,68.80
2019-01-26T02:59:13.197Z,77.12
2019-01-26T02:59:45.661Z,62.13
2019-01-26T03:00:20.767Z,65.45
2019-01-26T03:00:53.605Z,54.98
2019-01-26T03:01:26.072Z,60.67
2019-01-26T03:01:58.537Z,58.48
2019-01-26T03:02:30.998Z,72.22
2019-01-26T03:03:03.875Z,62.38
2019-01-26T03:03:36.807Z,54.10
2019-01-26T03:04:09.307Z,63.28
2019-01-26T03:04:42.159Z,67.75
2019-01-26T03:05:14.672Z,61.20
2019-01-26T03:05:48.385Z,76.85
2019-01-26T03:06:20.866Z,56.55
2019-01-26T03:06:53.343Z,60.45
2019-01-26T03:07:25.823Z,51.80
2019-01-26T03:07:58.295Z,59.30
2019-01-26T03:08:30.773Z,60.10
2019-01-26T03:09:05.475Z,68.35
2019-01-26T03:09:37.971Z,60.85
2019-01-26T03:10:12.626Z,57.15
2019-01-26T03:10:45.108Z,59.63
2019-01-26T03:11:17.583Z,55.03
2019-01-26T03:11:50.056Z,56.05
2019-01-26T03:12:22.523Z,64.60
2019-01-26T03:12:55.001Z,59.98
2019-01-26T03:13:27.782Z,59.42
2019-01-26T03:14:00.262Z,61.50
2019-01-26T03:14:32.732Z,56.88
2019-01-26T03:15:07.061Z,62.10
2019-01-26T03:15:41.532Z,63.20
2019-01-26T03:16:14.546Z,64.55
2019-01-26T03:16:47.032Z,63.25
2019-01-26T03:17:19.494Z,64.00
2019-01-26T03:17:52.361Z,61.42
2019-01-26T03:18:24.823Z,66.97
2019-01-26T03:18:57.491Z,69.05
2019-01-26T03:19:30.295Z,65.90
2019-01-26T03:20:03.975Z,66.55
2019-01-26T03:20:36.506Z,67.40
2019-01-26T03:21:08.976Z,63.30
2019-01-26T03:21:41.449Z,68.70
2019-01-26T03:22:13.976Z,65.37
2019-01-26T03:22:46.415Z,57.65
2019-01-26T03:23:19.238Z,63.87
2019-01-26T03:23:52.019Z,65.22
2019-01-26T03:24:24.488Z,65.40
2019-01-26T03:24:56.985Z,62.75
2019-01-26T03:25:29.459Z,63.13
2019-01-26T03:26:01.979Z,79.92
2019-01-26T03:26:34.464Z,57.00
2019-01-26T03:27:07.294Z,59.42
2019-01-26T03:27:39.780Z,58.50
2019-01-26T03:28:12.563Z,65.97
2019-01-26T03:28:45.029Z,70.95
2019-01-26T03:29:17.500Z,67.10
2019-01-26T03:29:50.280Z,62.65
2019-01-26T03:30:24.615Z,66.72
2019-01-26T03:30:57.089Z,64.62
2019-01-26T03:31:29.948Z,63.90
2019-01-26T03:32:02.454Z,61.65
2019-01-26T03:32:35.247Z,62.25
2019-01-26T03:33:07.738Z,63.40
2019-01-26T03:33:40.209Z,67.82
2019-01-26T03:34:12.681Z,65.90
2019-01-26T03:34:45.150Z,62.50
2019-01-26T03:35:18.033Z,72.53
2019-01-26T03:35:50.512Z,68.22
2019-01-26T03:36:22.974Z,68.33
2019-01-26T03:36:55.492Z,70.75
2019-01-26T03:37:27.963Z,58.05
2019-01-26T03:38:00.438Z,66.00
2019-01-26T03:38:32.906Z,68.10
2019-01-26T03:39:07.908Z,63.68
2019-01-26T03:39:40.392Z,59.73
2019-01-26T03:40:14.372Z,61.90
2019-01-26T03:40:47.210Z,64.05
2019-01-26T03:41:20.393Z,75.20
2019-01-26T03:41:53.255Z,66.35
2019-01-26T03:42:25.754Z,71.40
2019-01-26T03:42:58.737Z,63.05
2019-01-26T03:43:31.223Z,67.35
2019-01-26T03:44:04.128Z,64.67
2019-01-26T03:44:36.603Z,59.38
2019-01-26T03:45:10.199Z,66.35
2019-01-26T03:45:42.676Z,69.95
2019-01-26T03:46:15.270Z,69.70
2019-01-26T03:46:48.139Z,72.25
2019-01-26T03:47:20.595Z,67.05
2019-01-26T03:47:53.405Z,64.12
2019-01-26T03:48:25.975Z,67.60
2019-01-26T03:48:59.201Z,57.58
2019-01-26T03:49:32.826Z,61.98
2019-01-26T03:50:06.026Z,60.33
2019-01-26T03:50:38.512Z,64.65
2019-01-26T03:51:11.343Z,66.70
2019-01-26T03:51:44.493Z,66.67
2019-01-26T03:52:16.972Z,69.30
2019-01-26T03:52:49.753Z,62.88
2019-01-26T03:53:22.242Z,57.25
2019-01-26T03:53:54.715Z,62.03
2019-01-26T03:54:27.190Z,60.63
2019-01-26T03:54:59.660Z,63.92
2019-01-26T03:55:32.142Z,64.35
2019-01-26T03:56:04.648Z,66.37
2019-01-26T03:56:37.142Z,65.00
2019-01-26T03:57:10.042Z,67.40
2019-01-26T03:57:42.611Z,69.12
2019-01-26T03:58:15.093Z,72.00
2019-01-26T03:58:47.599Z,73.47
2019-01-26T03:59:20.089Z,76.10
2019-01-26T03:59:52.894Z,77.70
2019-01-26T04:00:26.450Z,75.67
2019-01-26T04:00:58.933Z,62.35
2019-01-26T04:01:31.408Z,66.70
2019-01-26T04:02:04.254Z,66.92
2019-01-26T04:02:36.724Z,65.80
2019-01-26T04:03:09.181Z,61.60
2019-01-26T04:03:41.656Z,66.65
2019-01-26T04:04:14.226Z,71.30
2019-01-26T04:04:46.637Z,68.62
2019-01-26T04:05:19.470Z,63.92
2019-01-26T04:05:51.940Z,64.97
2019-01-26T04:06:25.047Z,66.37
2019-01-26T04:06:57.530Z,69.77
2019-01-26T04:07:30.005Z,72.40
2019-01-26T04:08:02.570Z,73.35
2019-01-26T04:08:35.339Z,80.05
2019-01-26T04:09:08.666Z,72.25
2019-01-26T04:09:41.149Z,63.10
2019-01-26T04:10:13.848Z,68.72
2019-01-26T04:10:46.367Z,68.80
2019-01-26T04:11:18.796Z,68.30
2019-01-26T04:11:51.276Z,71.00
2019-01-26T04:12:24.067Z,73.05
2019-01-26T04:12:56.539Z,66.92
2019-01-26T04:13:29.011Z,88.03
2019-01-26T04:14:01.484Z,72.62
2019-01-26T04:14:34.190Z,67.22
2019-01-26T04:15:08.791Z,78.42
2019-01-26T04:15:41.697Z,70.70
2019-01-26T04:16:14.186Z,82.08
2019-01-26T04:16:46.964Z,80.42
2019-01-26T04:17:21.904Z,77.97
2019-01-26T04:17:54.022Z,74.58
2019-01-26T04:18:26.499Z,62.67
2019-01-26T04:18:58.968Z,70.40
2019-01-26T04:19:31.448Z,72.27
2019-01-26T04:20:05.055Z,69.62
2019-01-26T04:20:37.551Z,57.80
2019-01-26T04:21:10.139Z,61.95
2019-01-26T04:21:42.621Z,69.72
2019-01-26T04:22:15.105Z,59.75
2019-01-26T04:22:48.000Z,69.90
2019-01-26T04:23:20.797Z,85.95
2019-01-26T04:23:53.261Z,71.25
2019-01-26T04:24:25.725Z,59.80
2019-01-26T04:24:58.195Z,61.48
2019-01-26T04:25:31.040Z,65.87
2019-01-26T04:26:03.550Z,70.90
2019-01-26T04:26:36.018Z,76.33
2019-01-26T04:27:08.498Z,66.72
2019-01-26T04:27:40.967Z,74.40
2019-01-26T04:28:14.834Z,78.30
2019-01-26T04:28:47.318Z,64.72
2019-01-26T04:29:19.795Z,68.42
2019-01-26T04:29:52.260Z,72.97
2019-01-26T04:30:25.022Z,67.95
2019-01-26T04:30:57.544Z,69.75
2019-01-26T04:31:30.043Z,65.50
2019-01-26T04:32:02.877Z,66.30
2019-01-26T04:32:35.334Z,72.85
2019-01-26T04:33:08.130Z,69.35
2019-01-26T04:33:40.607Z,74.42
2019-01-26T04:34:13.091Z,74.77
2019-01-26T04:34:45.550Z,73.62
2019-01-26T04:35:18.036Z,71.55
2019-01-26T04:35:50.505Z,68.25
2019-01-26T04:36:22.992Z,62.73
2019-01-26T04:36:55.832Z,72.60
2019-01-26T04:37:28.302Z,69.60
2019-01-26T04:38:00.755Z,69.82
2019-01-26T04:38:33.582Z,67.22
2019-01-26T04:39:07.864Z,69.97
2019-01-26T04:39:40.340Z,62.73
2019-01-26T04:40:14.551Z,69.75
2019-01-26T04:40:47.029Z,68.47
2019-01-26T04:41:19.816Z,67.27
2019-01-26T04:41:52.293Z,76.45
2019-01-26T04:42:25.107Z,76.45
2019-01-26T04:42:58.136Z,71.28
2019-01-26T04:43:31.032Z,62.95
2019-01-26T04:44:04.107Z,67.35
2019-01-26T04:44:37.015Z,71.05
2019-01-26T04:45:12.322Z,62.30
2019-01-26T04:45:44.803Z,63.13
2019-01-26T04:46:17.276Z,67.95
2019-01-26T04:46:49.771Z,86.67
2019-01-26T04:47:30.545Z,81.63
2019-01-26T04:47:56.833Z,85.47
2019-01-26T04:48:29.295Z,82.15
2019-01-26T04:49:02.223Z,85.75
2019-01-26T04:49:34.695Z,83.20
2019-01-26T04:50:09.097Z,94.83
2019-01-26T04:50:42.518Z,104.23
2019-01-26T04:51:15.143Z,114.60
2019-01-26T04:51:47.607Z,120.40
2019-01-26T04:52:20.749Z,130.10
2019-01-26T04:52:53.214Z,125.02
2019-01-26T04:53:26.069Z,110.35
2019-01-26T04:53:58.539Z,123.07
2019-01-26T04:54:31.396Z,115.80
2019-01-26T04:55:04.431Z,102.17
2019-01-26T04:55:36.900Z,95.00
2019-01-26T04:56:09.368Z,87.33
2019-01-26T04:56:41.825Z,81.50
2019-01-26T04:57:14.294Z,80.72
2019-01-26T04:57:46.794Z,77.45
2019-01-26T04:58:19.283Z,73.57
2019-01-26T04:58:51.775Z,70.67
2019-01-26T04:59:24.251Z,75.28
2019-01-26T04:59:56.731Z,75.37
2019-01-26T05:00:29.210Z,66.17
2019-01-26T05:01:02.075Z,66.62
2019-01-26T05:01:34.570Z,67.08
2019-01-26T05:02:07.052Z,62.03
2019-01-26T05:02:39.513Z,75.50
2019-01-26T05:03:11.978Z,70.37
2019-01-26T05:03:44.443Z,61.98
2019-01-26T05:04:16.958Z,71.65
2019-01-26T05:04:49.794Z,69.00
2019-01-26T05:05:22.269Z,73.07
2019-01-26T05:05:54.739Z,65.85
2019-01-26T05:06:27.517Z,71.70
2019-01-26T05:07:00.454Z,74.40
2019-01-26T05:07:33.249Z,69.75
2019-01-26T05:08:05.865Z,66.57
2019-01-26T05:08:38.325Z,66.07
2019-01-26T05:09:10.797Z,65.08
2019-01-26T05:09:43.313Z,67.90
2019-01-26T05:10:16.379Z,82.33
2019-01-26T05:10:48.833Z,68.33
2019-01-26T05:11:21.680Z,72.60
2019-01-26T05:11:54.163Z,68.35
2019-01-26T05:12:26.628Z,66.40
2019-01-26T05:12:59.094Z,67.17
2019-01-26T05:13:34.350Z,69.05
2019-01-26T05:14:06.840Z,71.57
2019-01-26T05:14:39.302Z,76.05
2019-01-26T05:15:13.099Z,69.37
2019-01-26T05:15:46.009Z,68.35
2019-01-26T05:16:18.488Z,69.05
2019-01-26T05:16:51.336Z,67.75
2019-01-26T05:17:23.806Z,67.40
2019-01-26T05:17:56.562Z,69.25
2019-01-26T05:18:28.795Z,64.03
2019-01-26T05:19:01.262Z,76.80
2019-01-26T05:19:33.744Z,81.12
2019-01-26T05:20:09.693Z,66.02
2019-01-26T05:20:42.183Z,76.45
2019-01-26T05:21:14.663Z,64.77
2019-01-26T05:21:47.143Z,76.35
2019-01-26T05:22:19.627Z,71.12
2019-01-26T05:22:52.102Z,72.70
2019-01-26T05:23:24.583Z,65.30
2019-01-26T05:23:57.391Z,70.32
2019-01-26T05:24:29.882Z,68.02
2019-01-26T05:25:02.363Z,67.30
2019-01-26T05:25:35.606Z,76.95
2019-01-26T05:26:08.576Z,57.73
2019-01-26T05:26:41.048Z,62.80
2019-01-26T05:27:13.901Z,65.15
2019-01-26T05:27:47.131Z,65.75
2019-01-26T05:28:19.533Z,66.65
2019-01-26T05:28:52.487Z,70.67
2019-01-26T05:29:24.950Z,65.80
2019-01-26T05:29:57.429Z,57.38
2019-01-26T05:30:30.002Z,72.97
2019-01-26T05:31:02.469Z,59.15
2019-01-26T05:31:35.390Z,65.80
2019-01-26T05:32:08.205Z,66.92
2019-01-26T05:32:40.687Z,67.50
2019-01-26T05:33:13.527Z,64.85
2019-01-26T05:33:46.012Z,73.95
2019-01-26T05:34:18.862Z,63.42
2019-01-26T05:34:51.744Z,68.05
2019-01-26T05:35:24.215Z,67.58
2019-01-26T05:35:56.705Z,69.12
2019-01-26T05:36:29.181Z,72.70
2019-01-26T05:37:01.703Z,77.22
2019-01-26T05:37:34.859Z,72.45
2019-01-26T05:38:07.618Z,70.90
2019-01-26T05:38:40.094Z,76.15
2019-01-26T05:39:12.566Z,79.27
2019-01-26T05:39:45.057Z,78.72
2019-01-26T05:40:17.973Z,74.70
2019-01-26T05:40:50.434Z,67.03
2019-01-26T05:41:23.212Z,70.57
2019-01-26T05:41:55.684Z,65.67
2019-01-26T05:42:28.183Z,69.10
2019-01-26T05:43:01.633Z,67.10
2019-01-26T05:43:34.123Z,70.05
2019-01-26T05:44:06.934Z,65.12
2019-01-26T05:44:39.407Z,75.85
2019-01-26T05:45:16.212Z,72.08
2019-01-26T05:45:48.680Z,68.02
2019-01-26T05:46:21.160Z,66.70
2019-01-26T05:46:53.621Z,72.10
2019-01-26T05:47:26.086Z,83.90
2019-01-26T05:47:58.637Z,91.10
2019-01-26T05:48:31.538Z,93.47
2019-01-26T05:49:04.011Z,90.67
2019-01-26T05:49:36.489Z,81.60
2019-01-26T05:50:12.114Z,83.55
2019-01-26T05:50:44.977Z,87.17
2019-01-26T05:51:17.441Z,77.35
2019-01-26T05:51:49.910Z,66.95
2019-01-26T05:52:22.389Z,73.28
2019-01-26T05:52:55.537Z,70.70
2019-01-26T05:53:28.050Z,76.72
2019-01-26T05:54:00.552Z,91.12
2019-01-26T05:54:33.017Z,76.33
2019-01-26T05:55:06.194Z,82.37
2019-01-26T05:55:39.073Z,93.03
2019-01-26T05:56:11.548Z,90.55
2019-01-26T05:56:44.031Z,87.37
2019-01-26T05:57:16.494Z,85.47
2019-01-26T05:57:49.295Z,73.15
2019-01-26T05:58:22.092Z,72.03
2019-01-26T05:58:54.903Z,78.30
2019-01-26T05:59:27.380Z,77.72
2019-01-26T06:00:00.222Z,75.83
2019-01-26T06:00:36.006Z,69.70
2019-01-26T06:01:08.757Z,71.75
2019-01-26T06:01:41.670Z,76.47
2019-01-26T06:02:14.150Z,71.07
2019-01-26T06:02:46.623Z,66.67
2019-01-26T06:03:19.115Z,69.62
2019-01-26T06:03:51.582Z,67.35
2019-01-26T06:04:24.069Z,64.10
2019-01-26T06:04:56.542Z,68.95
2019-01-26T06:05:29.028Z,67.27
2019-01-26T06:06:01.489Z,70.85
2019-01-26T06:06:33.964Z,65.10
2019-01-26T06:07:07.097Z,74.58
2019-01-26T06:07:39.588Z,77.20
2019-01-26T06:08:12.042Z,66.75
2019-01-26T06:08:44.509Z,72.42
2019-01-26T06:09:16.986Z,77.37
2019-01-26T06:09:49.503Z,68.50
2019-01-26T06:10:21.993Z,64.62
2019-01-26T06:10:54.450Z,68.60
2019-01-26T06:11:26.924Z,68.20
2019-01-26T06:11:59.398Z,69.60
2019-01-26T06:12:32.011Z,60.85
2019-01-26T06:13:05.073Z,57.70
2019-01-26T06:13:37.852Z,64.65
2019-01-26T06:14:10.323Z,60.65
2019-01-26T06:14:42.808Z,63.35
2019-01-26T06:15:15.518Z,64.77
2019-01-26T06:15:47.991Z,74.32
2019-01-26T06:16:20.771Z,65.20
2019-01-26T06:16:53.657Z,63.52
2019-01-26T06:17:26.126Z,65.28
2019-01-26T06:17:58.971Z,61.53
2019-01-26T06:18:31.730Z,63.58
2019-01-26T06:19:04.211Z,71.60
2019-01-26T06:19:36.688Z,64.12
2019-01-26T06:20:09.839Z,57.15
2019-01-26T06:20:42.712Z,72.03
2019-01-26T06:21:15.186Z,65.00
2019-01-26T06:21:47.650Z,60.58
2019-01-26T06:22:20.128Z,63.83
2019-01-26T06:22:53.293Z,63.23
2019-01-26T06:23:26.139Z,68.85
2019-01-26T06:23:58.611Z,62.50
2019-01-26T06:24:31.074Z,61.02
2019-01-26T06:25:04.373Z,63.95
2019-01-26T06:25:36.834Z,62.35
2019-01-26T06:26:09.338Z,63.55
2019-01-26T06:26:41.943Z,62.73
2019-01-26T06:27:14.414Z,57.83
2019-01-26T06:27:46.933Z,60.75
2019-01-26T06:28:19.408Z,65.60
2019-01-26T06:28:51.877Z,61.20
2019-01-26T06:29:24.353Z,60.08
2019-01-26T06:29:57.128Z,60.90
2019-01-26T06:30:29.594Z,60.60
2019-01-26T06:31:02.071Z,63.42
2019-01-26T06:31:34.841Z,69.72
2019-01-26T06:32:07.356Z,67.87
2019-01-26T06:32:39.840Z,55.58
2019-01-26T06:33:12.327Z,60.58
2019-01-26T06:33:44.786Z,63.60
2019-01-26T06:34:17.558Z,59.90
2019-01-26T06:34:50.009Z,69.47
2019-01-26T06:35:22.698Z,71.50
2019-01-26T06:35:55.169Z,65.67
2019-01-26T06:36:27.638Z,56.30
2019-01-26T06:37:00.653Z,65.60
2019-01-26T06:37:33.136Z,60.23
2019-01-26T06:38:05.961Z,62.05
2019-01-26T06:38:38.422Z,59.30
2019-01-26T06:39:10.893Z,62.00
2019-01-26T06:39:43.360Z,66.33
2019-01-26T06:40:16.767Z,72.35
2019-01-26T06:40:49.245Z,63.40
2019-01-26T06:41:21.715Z,66.22
2019-01-26T06:41:54.182Z,58.05
2019-01-26T06:42:26.679Z,55.40
2019-01-26T06:42:59.902Z,56.50
2019-01-26T06:43:32.713Z,61.33
2019-01-26T06:44:05.189Z,64.30
2019-01-26T06:44:37.671Z,52.27
2019-01-26T06:45:10.726Z,58.65
2019-01-26T06:45:46.414Z,63.60
2019-01-26T06:46:18.894Z,65.80
2019-01-26T06:46:51.358Z,64.40
2019-01-26T06:47:23.835Z,58.02
2019-01-26T06:48:02.122Z,64.55
2019-01-26T06:48:30.616Z,58.90
2019-01-26T06:49:03.204Z,60.85
2019-01-26T06:49:36.054Z,58.50
2019-01-26T06:50:11.954Z,57.25
2019-01-26T06:50:44.947Z,58.08
2019-01-26T06:51:17.414Z,60.33
2019-01-26T06:51:55.473Z,54.48
2019-01-26T06:52:27.944Z,58.95
2019-01-26T06:53:00.454Z,57.80
2019-01-26T06:53:33.318Z,52.98
2019-01-26T06:54:05.801Z,56.33
2019-01-26T06:54:38.628Z,64.07
2019-01-26T06:55:11.408Z,58.40
2019-01-26T06:55:44.263Z,61.77
2019-01-26T06:56:16.729Z,58.33
2019-01-26T06:56:49.317Z,57.38
2019-01-26T06:57:22.160Z,70.35
2019-01-26T06:57:54.927Z,56.80
2019-01-26T06:58:27.799Z,58.75
2019-01-26T06:59:00.558Z,57.45
2019-01-26T06:59:33.331Z,62.13
2019-01-26T07:00:09.094Z,56.35
2019-01-26T07:00:41.577Z,57.00
2019-01-26T07:01:14.046Z,53.40
2019-01-26T07:01:46.542Z,63.90